Terminal Aerodrome Forecast
Issued by NWS Charleston, WV

Current Version | Previous Version | Text Only | Print | Product List | Glossary Off
Versions: 1 2 3 4 5 6 7 8 9 10 11 12 13 14 15 16 17 18 19 20 21 22 23

000
FTUS41 KRLX 290200 AAA
TAFEKN
TAF AMD
KEKN 290250Z 2903/2924 00000KT P6SM SKC
     FM290800 00000KT 2SM BR SCT001 SCT150
     FM290900 00000KT 1/2SM FG VV001
     FM291300 00000KT 4SM BR SCT002 SCT200
     FM291330 00000KT P6SM SCT050=

USA.gov is the U.S. government's official web portal to all federal, state and local government web resources and services.